Springfield, Georgia
Current Conditions -  °F | °C
As of 6:53 PM on Friday 31 Oct 2014 (Local Time) from KSAV Reporting Station
Few Clouds Few Clouds  
Wind Chill: 66°   Ceiling: Unl
Heat Index: 66°   Visibility: 10mi
Dew Point: 50°   Wind: 0mph
Humidity: 56%   Direction: NA
Pressure: 29.8"   Gusts: NA
Location:  32.37°N, 81.31°W
Report Text: KSAV 312253Z 00000KT 10SM FEW060 19/10 A2980 RMK AO2 SLP090 T01890100
Loading
Personal Weather Stations






























Interactive Weather Map
Tropical Storm Tracking
New forecast layout! Learn more

10-Day Weather Forecast

Advertisements
Track Severe Weather on mobile